Mobridge, SD

10:48 AM CST on February 28, 2015 (GMT -0600)
Pierre Regional | Change Station
CLOSE
Current Station
Airport
Location: Pierre,
Elevation: 1742 ft
Nearby Weather Stations

Elev 1742 ft 44.38 °N, 100.29 °W | Updated 55 minutes ago

Overcast
Overcast
21 °F
Feels Like 8 °F
N
15
Wind Variable Wind from SSW

Today
High -- | Low -- °F
--% Chance of Precip.
Yesterday
High -- | Low -- °F
Precip. -- in
7:22 AM 6:27 PM
Waxing Gibbous, 78% visible
Pressure 30.25 in
Visibility 10.0 miles
Clouds Clear
Windchill 8 °F
Dew Point 8 °F
Humidity 57%
Rainfall 0.00 in
Snow Depth Not available.
UV 2 out of 12
Pollen .30 out of 12
Air Quality Not available.
Flu Activity Not available.
METAR KPIR 281553Z AUTO 21013KT 10SM CLR M06/M13 A3015 RMK AO2 SLP241 T10611133

More Conditions Fewer Conditions

Pressure 30.25 in
Visibility 10.0 miles
Clouds Clear
Windchill 8 °F
Dew Point 8 °F
Humidity 57%
Rainfall 0.00 in
Snow Depth Not available.
UV 2 out of 12
Pollen .30 out of 12
Air Quality Not available.
Flu Activity Not available.
METAR KPIR 281553Z AUTO 21013KT 10SM CLR M06/M13 A3015 RMK AO2 SLP241 T10611133

More Conditions Fewer Conditions

10-Day Weather Forecast

Almanac

Astronomy

Feb. 28, 2015 Rise Set
Actual Time
Civil Twilight
Nautical Twilight
Astronomical Twilight
Moon
Length of Visible Light
Length of Day
Tomorrow will be .
, % of the Moon is Illuminated

Today's Extremes

State Highs State Lows

Community

WunderPhotos

Upload Photos

1,801,081 photos uploaded!

WunderBlogs® & News

Nearby

Air Quality

  Air Quality AQ Index Pollutant
Not available.

Snow Depth

Station Depth Elevation

Earthquake Activity

City Distance Mag. Time & Date
Minimum magnitude displayed is 2.5.

Coastal Water Temperatures

Place Temperature

Nearby Weather Stations